Time;durP1;ratioP1;P1;durP2;ratioP2;P2;SDS_P1;SDS_P2;PMS_P1;PMS_P2;Temp;Humidity;BMP_temperature;BMP_pressure;BME280_temperature;BME280_humidity;BME280_pressure;Samples;Min_cycle;Max_cycle;Signal;HPM_P1;HPM_P2
2022/07/17 00:01:56;;;;;;;8.90;4.57;;;17.90;1.00;;;;;;5109531;28;20285;-75
2022/07/17 00:04:22;;;;;;;5.20;4.43;;;17.90;1.00;;;;;;5111273;28;20179;-74
2022/07/17 00:06:47;;;;;;;6.53;4.07;;;17.90;1.00;;;;;;5110507;28;20197;-74
2022/07/17 00:09:13;;;;;;;7.63;4.00;;;17.80;1.00;;;;;;5110317;28;20195;-74
2022/07/17 00:11:38;;;;;;;4.13;3.50;;;17.70;1.00;;;;;;5109080;28;20174;-74
2022/07/17 00:14:04;;;;;;;7.03;4.20;;;17.60;1.00;;;;;;5110843;28;20736;-74
2022/07/17 00:16:30;;;;;;;5.77;4.77;;;17.40;1.00;;;;;;5109865;28;20163;-74
2022/07/17 00:18:55;;;;;;;6.60;4.60;;;17.30;1.00;;;;;;5110118;28;20186;-74
2022/07/17 00:21:21;;;;;;;4.87;4.00;;;17.20;1.00;;;;;;5109024;28;20594;-74
2022/07/17 00:23:46;;;;;;;5.50;3.97;;;17.10;1.00;;;;;;5106409;28;20213;-74
2022/07/17 00:26:12;;;;;;;5.37;3.83;;;17.10;1.00;;;;;;5105445;28;20533;-74
2022/07/17 00:28:37;;;;;;;6.70;4.33;;;16.90;1.00;;;;;;5105211;28;20194;-74
2022/07/17 00:31:03;;;;;;;7.30;3.40;;;16.90;1.00;;;;;;5108815;28;20182;-74
2022/07/17 00:33:29;;;;;;;4.73;3.80;;;16.90;1.00;;;;;;5108065;28;20519;-75
2022/07/17 00:35:54;;;;;;;4.07;3.50;;;17.00;1.00;;;;;;5090814;28;20179;-75
2022/07/17 00:38:20;;;;;;;6.20;3.77;;;16.90;1.00;;;;;;5109755;28;20199;-74
2022/07/17 00:40:45;;;;;;;6.07;4.00;;;16.80;1.00;;;;;;5108646;28;20175;-74
2022/07/17 00:43:11;;;;;;;3.77;3.40;;;16.70;1.00;;;;;;5107880;28;20584;-74
2022/07/17 00:45:36;;;;;;;4.27;3.60;;;16.60;1.00;;;;;;5108113;28;20593;-74
2022/07/17 00:48:10;;;;;;;7.40;3.47;;;16.60;1.00;;;;;;5109012;28;20194;-74
2022/07/17 00:50:38;;;;;;;5.17;3.63;;;16.60;1.00;;;;;;5109309;28;20186;-74
2022/07/17 00:53:05;;;;;;;6.30;3.70;;;16.70;1.00;;;;;;5107894;28;20494;-74
2022/07/17 00:55:31;;;;;;;10.13;3.47;;;16.90;1.00;;;;;;5108918;28;20451;-74
2022/07/17 00:58:00;;;;;;;4.90;3.70;;;17.00;1.00;;;;;;5108118;28;20962;-75
2022/07/17 01:00:26;;;;;;;4.83;3.70;;;17.00;1.00;;;;;;5109342;28;20315;-74
2022/07/17 01:02:53;;;;;;;8.37;3.60;;;17.30;1.00;;;;;;5107232;28;20409;-74
2022/07/17 01:05:20;;;;;;;3.87;3.47;;;16.80;1.00;;;;;;5103584;28;20785;-75
2022/07/17 01:07:48;;;;;;;5.60;3.87;;;16.80;1.00;;;;;;5090683;28;20443;-74
2022/07/17 01:10:16;;;;;;;6.03;3.73;;;16.80;1.00;;;;;;5108080;28;20645;-73
2022/07/17 01:12:42;;;;;;;5.50;4.00;;;16.80;1.00;;;;;;5108684;28;20791;-74
2022/07/17 01:15:10;;;;;;;8.03;3.60;;;16.70;1.00;;;;;;5107547;28;20425;-74
2022/07/17 01:17:36;;;;;;;4.43;3.20;;;16.90;1.00;;;;;;5108513;28;20417;-74
2022/07/17 01:20:07;;;;;;;11.53;3.90;;;16.90;1.00;;;;;;5108507;28;20436;-75
2022/07/17 01:22:44;;;;;;;3.50;3.20;;;17.10;1.00;;;;;;5089662;28;20421;-75
2022/07/17 01:25:10;;;;;;;4.00;3.07;;;17.10;1.00;;;;;;5108041;28;20435;-74
2022/07/17 01:27:36;;;;;;;3.97;3.10;;;17.20;1.00;;;;;;5104796;28;20452;-74
2022/07/17 01:30:01;;;;;;;4.90;3.50;;;17.30;1.00;;;;;;5108543;28;20847;-74
2022/07/17 01:32:34;;;;;;;3.53;2.57;;;17.30;1.00;;;;;;5107811;28;20196;-74
2022/07/17 01:35:00;;;;;;;4.03;3.23;;;17.30;1.00;;;;;;5086237;28;20563;-74
2022/07/17 01:37:26;;;;;;;4.20;3.10;;;17.40;1.00;;;;;;5089507;28;20962;-74
2022/07/17 01:39:55;;;;;;;3.90;2.83;;;17.50;1.00;;;;;;5107296;28;20429;-74
2022/07/17 01:42:22;;;;;;;4.33;2.83;;;17.50;1.00;;;;;;5088692;28;20255;-74
2022/07/17 01:44:47;;;;;;;3.30;2.60;;;17.50;1.00;;;;;;5108288;28;20432;-75
2022/07/17 01:47:16;;;;;;;7.40;3.03;;;17.60;1.00;;;;;;5108438;28;20577;-75
2022/07/17 01:49:53;;;;;;;2.53;2.03;;;17.50;1.00;;;;;;5089704;28;20521;-74
2022/07/17 01:52:20;;;;;;;3.40;2.17;;;17.80;1.00;;;;;;5107671;28;20436;-74
2022/07/17 01:54:46;;;;;;;3.10;2.13;;;18.00;1.00;;;;;;5087945;28;20456;-74
2022/07/17 01:57:11;;;;;;;4.43;2.43;;;18.20;1.00;;;;;;5108694;28;20655;-75
2022/07/17 01:59:38;;;;;;;7.30;2.47;;;18.30;1.00;;;;;;5107945;28;20518;-74
2022/07/17 02:02:05;;;;;;;3.33;2.20;;;18.30;1.00;;;;;;5086495;28;20228;-74
2022/07/17 02:04:34;;;;;;;7.73;2.70;;;18.40;1.00;;;;;;5108261;28;20425;-75
2022/07/17 02:07:00;;;;;;;3.57;2.20;;;18.40;1.00;;;;;;5094161;28;20417;-74
2022/07/17 02:09:25;;;;;;;2.80;2.47;;;18.40;1.00;;;;;;5106824;28;20442;-74
2022/07/17 02:11:51;;;;;;;3.63;2.40;;;18.40;1.00;;;;;;5107501;28;20183;-75
2022/07/17 02:14:17;;;;;;;4.03;2.70;;;18.30;1.00;;;;;;5108122;28;20194;-75
2022/07/17 02:16:43;;;;;;;4.80;2.77;;;18.40;1.00;;;;;;5088876;28;20466;-74
2022/07/17 02:19:08;;;;;;;5.20;2.50;;;18.40;1.00;;;;;;5089799;28;20182;-75
2022/07/17 02:21:34;;;;;;;7.63;2.53;;;20.90;1.00;;;;;;5108364;28;20173;-74
2022/07/17 02:23:59;;;;;;;4.50;2.40;;;18.80;1.00;;;;;;5088973;28;20167;-74
2022/07/17 02:26:25;;;;;;;4.10;2.17;;;18.60;1.00;;;;;;5107439;28;20183;-74
2022/07/17 02:28:50;;;;;;;4.67;2.73;;;18.60;1.00;;;;;;5107607;28;20190;-74
2022/07/17 02:31:16;;;;;;;3.70;2.37;;;18.50;1.00;;;;;;5107634;28;20174;-75
2022/07/17 02:33:41;;;;;;;3.97;2.70;;;21.20;1.00;;;;;;5106354;28;20197;-74
2022/07/17 02:36:07;;;;;;;10.33;2.17;;;18.30;1.00;;;;;;5107768;28;20167;-75
2022/07/17 02:38:33;;;;;;;6.63;2.60;;;18.30;1.00;;;;;;5106795;28;20194;-74
2022/07/17 02:40:58;;;;;;;5.23;2.80;;;18.20;1.00;;;;;;5107207;28;20185;-76
2022/07/17 02:43:24;;;;;;;4.73;2.60;;;18.10;1.00;;;;;;5107145;28;20634;-74
2022/07/17 02:45:49;;;;;;;4.10;2.60;;;18.00;1.00;;;;;;5107085;28;20174;-74
2022/07/17 02:48:15;;;;;;;10.03;3.40;;;17.90;1.00;;;;;;5105305;28;20191;-75
2022/07/17 02:50:40;;;;;;;5.40;3.30;;;17.80;1.00;;;;;;5107438;28;20179;-74
2022/07/17 02:53:06;;;;;;;6.40;3.10;;;17.80;1.00;;;;;;5106794;28;20614;-75
2022/07/17 02:55:31;;;;;;;5.23;2.97;;;17.50;1.00;;;;;;5089248;28;20608;-74
2022/07/17 02:57:57;;;;;;;5.77;2.20;;;;;;;;;;5105191;28;20282;-75
2022/07/17 03:00:23;;;;;;;3.73;2.20;;;17.50;1.00;;;;;;5108228;28;20167;-74
2022/07/17 03:02:49;;;;;;;3.80;2.13;;;17.70;1.00;;;;;;5105637;28;20175;-74
2022/07/17 03:05:16;;;;;;;2.57;2.10;;;17.70;1.00;;;;;;5090354;28;20207;-75
2022/07/17 03:07:43;;;;;;;7.07;3.13;;;18.10;1.00;;;;;;5110166;28;20680;-74
2022/07/17 03:10:09;;;;;;;3.93;2.50;;;18.20;1.00;;;;;;5111359;28;20416;-74
2022/07/17 03:12:35;;;;;;;10.57;2.73;;;18.30;1.00;;;;;;5110141;28;20417;-75
2022/07/17 03:15:00;;;;;;;3.40;2.07;;;18.00;1.00;;;;;;5111063;28;20179;-75
2022/07/17 03:17:26;;;;;;;5.40;3.30;;;;;;;;;;5088610;28;20207;-75
2022/07/17 03:19:52;;;;;;;4.37;3.10;;;18.10;1.00;;;;;;5093089;28;20261;-74
2022/07/17 03:22:18;;;;;;;4.70;3.10;;;17.80;1.00;;;;;;5111404;28;20174;-75
2022/07/17 03:24:43;;;;;;;5.60;2.90;;;17.40;1.00;;;;;;5109729;28;20187;-74
2022/07/17 03:27:09;;;;;;;9.63;3.67;;;16.90;1.00;;;;;;5111395;28;20205;-74
2022/07/17 03:29:34;;;;;;;3.10;2.50;;;16.90;1.00;;;;;;5111484;28;20456;-74
2022/07/17 03:32:00;;;;;;;4.80;2.73;;;17.00;1.00;;;;;;5102080;28;20213;-74
2022/07/17 03:34:25;;;;;;;5.37;2.80;;;16.90;1.00;;;;;;5109799;28;20275;-74
2022/07/17 03:36:51;;;;;;;3.63;2.47;;;16.90;1.00;;;;;;5093032;28;20318;-74
2022/07/17 03:39:16;;;;;;;3.10;1.80;;;16.90;1.00;;;;;;5109706;28;20668;-74
2022/07/17 03:41:42;;;;;;;3.83;1.70;;;17.10;1.00;;;;;;5110341;28;20637;-74
2022/07/17 03:44:07;;;;;;;2.90;2.40;;;17.40;1.00;;;;;;5110658;28;20402;-74
2022/07/17 03:46:33;;;;;;;4.43;3.37;;;17.50;1.00;;;;;;5091530;28;20191;-75
2022/07/17 03:48:59;;;;;;;3.27;2.87;;;17.50;1.00;;;;;;5110576;28;20233;-75
2022/07/17 03:51:25;;;;;;;9.50;3.20;;;17.10;1.00;;;;;;5110361;28;20332;-75
2022/07/17 03:53:51;;;;;;;6.73;3.00;;;16.80;1.00;;;;;;5091467;28;20297;-75
2022/07/17 03:56:17;;;;;;;5.03;3.40;;;16.60;1.00;;;;;;5107052;28;20527;-74
2022/07/17 03:58:42;;;;;;;6.43;3.20;;;16.50;1.00;;;;;;5091397;28;20675;-74
2022/07/17 04:01:08;;;;;;;4.20;2.70;;;16.50;1.00;;;;;;5109910;28;20251;-74
2022/07/17 04:03:33;;;;;;;8.47;3.10;;;16.60;1.00;;;;;;5091552;28;20224;-74
2022/07/17 04:05:59;;;;;;;7.93;2.93;;;16.50;1.00;;;;;;5092714;28;20227;-74
2022/07/17 04:08:24;;;;;;;5.77;3.33;;;16.30;1.00;;;;;;5107961;28;20207;-74
2022/07/17 04:10:50;;;;;;;2.97;2.67;;;16.20;1.00;;;;;;5110471;28;20259;-73
2022/07/17 04:13:16;;;;;;;5.63;3.23;;;16.10;1.00;;;;;;5109029;28;20649;-74
2022/07/17 04:15:55;;;;;;;4.30;2.90;;;16.00;1.00;;;;;;5109607;28;20183;-74
2022/07/17 04:18:29;;;;;;;3.27;2.70;;;16.00;1.00;;;;;;5109193;28;20725;-74
2022/07/17 04:21:00;;;;;;;5.97;2.77;;;16.20;1.00;;;;;;5110777;28;20416;-74
2022/07/17 04:23:26;;;;;;;2.80;1.90;;;16.20;1.00;;;;;;5109017;28;20434;-74
2022/07/17 04:25:53;;;;;;;4.70;3.13;;;16.50;1.00;;;;;;5109858;28;20441;-75
2022/07/17 04:28:18;;;;;;;3.30;3.00;;;16.60;1.00;;;;;;5108941;28;20460;-74
2022/07/17 04:30:44;;;;;;;4.57;3.30;;;16.50;1.00;;;;;;5110255;28;20429;-74
2022/07/17 04:33:10;;;;;;;4.40;3.07;;;16.30;1.00;;;;;;5108944;28;20340;-74
2022/07/17 04:35:36;;;;;;;6.60;3.57;;;16.20;1.00;;;;;;5109017;28;20296;-74
2022/07/17 04:38:04;;;;;;;9.40;3.70;;;16.10;1.00;;;;;;5108708;28;20198;-75
2022/07/17 04:40:30;;;;;;;4.47;3.07;;;16.00;1.00;;;;;;5091744;28;20194;-74
2022/07/17 04:42:55;;;;;;;4.80;3.60;;;15.90;1.00;;;;;;5108635;28;20766;-74
2022/07/17 04:45:21;;;;;;;4.90;3.40;;;15.90;1.00;;;;;;5109158;28;20437;-74
2022/07/17 04:47:46;;;;;;;3.50;3.07;;;15.90;1.00;;;;;;5089540;28;20198;-74
2022/07/17 04:50:12;;;;;;;4.23;3.07;;;16.00;1.00;;;;;;5110642;28;20255;-75
2022/07/17 04:52:38;;;;;;;5.60;3.20;;;16.00;1.00;;;;;;5108335;28;20266;-74
2022/07/17 04:55:04;;;;;;;3.57;3.27;;;16.00;1.00;;;;;;5091599;28;20679;-74
2022/07/17 04:57:29;;;;;;;4.40;3.33;;;16.00;1.00;;;;;;5108335;28;20315;-74
2022/07/17 04:59:55;;;;;;;4.20;3.50;;;16.10;1.00;;;;;;5110432;28;20522;-74
2022/07/17 05:02:20;;;;;;;3.50;3.20;;;16.10;1.00;;;;;;5108883;28;20637;-74
2022/07/17 05:04:47;;;;;;;4.63;3.27;;;16.20;1.00;;;;;;5107584;28;20269;-74
2022/07/17 05:07:12;;;;;;;5.90;3.53;;;16.20;1.00;;;;;;5090600;28;20224;-74
2022/07/17 05:09:38;;;;;;;7.20;3.93;;;16.10;1.00;;;;;;5107466;28;20429;-74
2022/07/17 05:12:04;;;;;;;4.80;3.60;;;16.20;1.00;;;;;;5090481;28;20713;-74
2022/07/17 05:14:29;;;;;;;5.67;3.23;;;16.30;1.00;;;;;;5089863;28;20232;-75
2022/07/17 05:16:55;;;;;;;5.10;3.07;;;16.40;1.00;;;;;;5090118;28;20424;-74
2022/07/17 05:19:21;;;;;;;5.97;3.60;;;16.60;1.00;;;;;;5108393;28;20286;-74
2022/07/17 05:21:47;;;;;;;3.73;3.00;;;16.70;1.00;;;;;;5109148;28;20179;-74
2022/07/17 05:24:12;;;;;;;5.20;3.40;;;16.90;1.00;;;;;;5107873;28;20360;-74
2022/07/17 05:26:37;;;;;;;7.10;3.20;;;17.00;1.00;;;;;;5108507;28;20167;-74
2022/07/17 05:29:03;;;;;;;7.80;3.43;;;17.10;1.00;;;;;;5108153;28;20199;-74
2022/07/17 05:31:28;;;;;;;4.20;3.43;;;17.30;1.00;;;;;;5107654;28;20179;-75
2022/07/17 05:33:54;;;;;;;5.03;3.53;;;17.40;1.00;;;;;;5107921;28;20644;-74
2022/07/17 05:36:20;;;;;;;5.53;3.50;;;17.40;1.00;;;;;;5109408;28;20164;-74
2022/07/17 05:38:45;;;;;;;3.77;3.00;;;17.50;1.00;;;;;;5105032;28;20196;-75
2022/07/17 05:41:11;;;;;;;3.40;3.10;;;17.50;1.00;;;;;;5090055;28;21192;-74
2022/07/17 05:43:36;;;;;;;4.03;3.40;;;17.70;1.00;;;;;;5087628;28;20182;-74
2022/07/17 05:46:01;;;;;;;8.40;3.33;;;17.90;1.00;;;;;;5107364;28;20175;-74
2022/07/17 05:48:30;;;;;;;8.27;3.30;;;17.90;1.00;;;;;;5107844;28;20203;-74
2022/07/17 05:50:55;;;;;;;4.53;3.20;;;18.10;1.00;;;;;;5107890;28;20449;-74
2022/07/17 05:53:21;;;;;;;5.10;3.53;;;18.20;1.00;;;;;;5107010;28;20561;-74
2022/07/17 05:55:46;;;;;;;6.20;3.20;;;18.20;1.00;;;;;;5090629;28;20656;-74
2022/07/17 05:58:12;;;;;;;6.93;3.13;;;18.40;1.00;;;;;;5108094;28;20202;-74
2022/07/17 06:00:38;;;;;;;6.73;3.17;;;18.50;1.00;;;;;;5108809;28;20181;-74
2022/07/17 06:03:03;;;;;;;3.87;2.97;;;18.60;1.00;;;;;;5107580;28;20267;-74
2022/07/17 06:05:29;;;;;;;3.50;2.83;;;18.90;1.00;;;;;;5106987;28;20667;-74
2022/07/17 06:07:57;;;;;;;13.13;3.13;;;19.30;1.00;;;;;;5108340;28;20307;-74
2022/07/17 06:10:23;;;;;;;3.47;2.90;;;19.20;1.00;;;;;;5107844;28;20183;-74
2022/07/17 06:12:49;;;;;;;6.03;2.90;;;19.30;1.00;;;;;;5089341;28;20436;-74
2022/07/17 06:15:15;;;;;;;9.50;3.00;;;19.80;1.00;;;;;;5107518;28;20455;-74
2022/07/17 06:17:41;;;;;;;8.20;2.83;;;19.40;1.00;;;;;;5100024;28;20256;-74
2022/07/17 06:20:07;;;;;;;4.53;2.80;;;19.40;1.00;;;;;;5107515;28;20429;-74
2022/07/17 06:22:33;;;;;;;4.60;2.70;;;19.50;1.00;;;;;;5107792;28;20163;-74
2022/07/17 06:24:58;;;;;;;6.43;2.47;;;19.60;1.00;;;;;;5107289;28;20676;-74
2022/07/17 06:27:24;;;;;;;5.37;2.43;;;19.70;1.00;;;;;;5107227;28;20198;-73
2022/07/17 06:29:49;;;;;;;6.43;2.77;;;19.80;1.00;;;;;;5108732;28;20202;-74
2022/07/17 06:32:16;;;;;;;4.87;2.70;;;19.90;1.00;;;;;;5087873;28;20521;-74
2022/07/17 06:34:41;;;;;;;6.20;2.60;;;20.00;1.00;;;;;;5107542;28;20799;-73
2022/07/17 06:37:07;;;;;;;6.80;3.10;;;20.10;1.00;;;;;;5107760;28;20491;-74
2022/07/17 06:39:32;;;;;;;7.13;2.87;;;20.30;1.00;;;;;;5089559;28;20579;-75
2022/07/17 06:41:58;;;;;;;6.23;3.37;;;20.30;1.00;;;;;;5107547;28;20317;-74
2022/07/17 06:44:24;;;;;;;3.90;2.27;;;20.40;1.00;;;;;;5107759;28;20197;-74
2022/07/17 06:46:49;;;;;;;8.20;3.00;;;20.50;1.00;;;;;;5088375;28;20640;-74
2022/07/17 06:49:15;;;;;;;10.97;2.60;;;20.60;1.00;;;;;;5108275;28;20224;-74
2022/07/17 06:51:41;;;;;;;7.03;2.40;;;20.60;1.00;;;;;;5105820;28;20248;-74
2022/07/17 06:54:07;;;;;;;7.23;2.53;;;20.70;1.00;;;;;;5107519;28;20208;-72
2022/07/17 06:56:32;;;;;;;6.07;3.33;;;20.80;1.00;;;;;;5102698;28;20436;-74
2022/07/17 06:58:58;;;;;;;6.53;2.40;;;21.00;1.00;;;;;;5107800;28;20198;-74
2022/07/17 07:01:23;;;;;;;5.00;2.10;;;21.00;1.00;;;;;;5105861;28;20262;-74
2022/07/17 07:03:49;;;;;;;4.40;2.07;;;21.00;1.00;;;;;;5105864;28;20261;-74
2022/07/17 07:06:14;;;;;;;6.70;2.37;;;21.20;1.00;;;;;;5108471;28;20633;-74
2022/07/17 07:08:40;;;;;;;7.23;2.80;;;21.40;1.00;;;;;;5106152;28;20505;-74
2022/07/17 07:11:06;;;;;;;8.93;2.63;;;21.60;1.00;;;;;;5107025;28;20175;-75
2022/07/17 07:13:32;;;;;;;3.73;2.03;;;21.70;1.00;;;;;;5108578;28;20202;-75
2022/07/17 07:15:58;;;;;;;5.22;2.65;;;;;;;;;;5106667;28;20585;-76
2022/07/17 07:18:23;;;;;;;6.13;2.50;;;22.20;1.00;;;;;;5106618;28;20376;-76
2022/07/17 07:20:49;;;;;;;3.47;2.17;;;22.30;1.00;;;;;;5088416;28;20332;-75
2022/07/17 07:23:15;;;;;;;3.77;2.20;;;22.30;1.00;;;;;;5106026;28;20182;-75
2022/07/17 07:25:40;;;;;;;4.43;2.20;;;22.40;1.00;;;;;;5077718;28;20686;-75
2022/07/17 07:28:06;;;;;;;5.30;2.30;;;22.60;1.00;;;;;;5084922;28;20294;-75
2022/07/17 07:30:32;;;;;;;5.10;2.30;;;22.80;1.00;;;;;;5106759;28;20167;-75
2022/07/17 07:32:57;;;;;;;7.00;2.60;;;22.90;1.00;;;;;;5088565;28;20208;-76
2022/07/17 07:35:23;;;;;;;4.80;2.53;;;23.20;1.00;;;;;;5086525;28;20171;-75
2022/07/17 07:37:49;;;;;;;5.13;2.40;;;23.50;1.00;;;;;;5103529;28;20198;-76
2022/07/17 07:40:15;;;;;;;5.70;2.40;;;23.80;1.00;;;;;;5106130;28;20516;-75
2022/07/17 07:42:41;;;;;;;5.07;2.20;;;;;;;;;;5105744;28;20276;-76
2022/07/17 07:45:08;;;;;;;3.80;2.17;;;24.10;1.00;;;;;;5106735;28;20179;-76
2022/07/17 07:47:41;;;;;;;3.77;2.07;;;24.30;1.00;;;;;;5107387;28;20236;-75
2022/07/17 07:50:07;;;;;;;5.13;2.10;;;24.50;1.00;;;;;;5088496;28;21015;-75
2022/07/17 07:52:32;;;;;;;3.50;2.20;;;24.70;1.00;;;;;;5109216;28;20931;-74
2022/07/17 07:54:58;;;;;;;7.43;2.30;;;24.70;1.00;;;;;;5090700;28;20563;-76
2022/07/17 07:57:23;;;;;;;5.20;2.03;;;25.00;1.00;;;;;;5111463;28;20197;-75
2022/07/17 07:59:49;;;;;;;5.13;2.10;;;25.10;1.00;;;;;;5107629;28;20171;-75
2022/07/17 08:02:14;;;;;;;4.33;2.07;;;25.20;1.00;;;;;;5109596;28;20189;-75
2022/07/17 08:04:40;;;;;;;4.03;2.13;;;25.30;1.00;;;;;;5092450;28;20178;-76
2022/07/17 08:07:05;;;;;;;4.03;2.40;;;25.40;1.00;;;;;;5111293;28;20182;-75
2022/07/17 08:09:31;;;;;;;5.10;2.40;;;25.50;1.00;;;;;;5091792;28;20750;-75
2022/07/17 08:11:56;;;;;;;3.07;2.00;;;25.60;1.00;;;;;;5110879;28;20317;-76
2022/07/17 08:14:22;;;;;;;4.70;2.00;;;25.80;1.00;;;;;;5093530;28;20540;-75
2022/07/17 08:16:47;;;;;;;4.23;2.27;;;25.80;1.00;;;;;;5092589;28;20493;-76
2022/07/17 08:19:13;;;;;;;3.23;2.17;;;26.00;1.00;;;;;;5111511;28;20660;-75
2022/07/17 08:21:39;;;;;;;5.50;2.10;;;26.20;1.00;;;;;;5111071;28;20170;-76
2022/07/17 08:24:04;;;;;;;3.87;2.23;;;26.40;1.00;;;;;;5092464;28;20186;-76
2022/07/17 08:26:30;;;;;;;4.17;2.30;;;26.50;1.00;;;;;;5110787;28;20547;-76
2022/07/17 08:28:55;;;;;;;4.03;2.20;;;26.70;1.00;;;;;;5111415;28;20667;-76
2022/07/17 08:31:21;;;;;;;3.83;2.20;;;26.90;1.00;;;;;;5090517;28;20226;-75
2022/07/17 08:33:46;;;;;;;3.50;2.30;;;27.10;1.00;;;;;;5111402;28;20258;-76
2022/07/17 08:36:12;;;;;;;11.13;2.40;;;27.40;1.00;;;;;;5111019;28;20324;-76
2022/07/17 08:38:37;;;;;;;5.40;2.30;;;27.70;1.00;;;;;;5091415;28;20706;-76
2022/07/17 08:41:04;;;;;;;5.83;2.20;;;27.70;1.00;;;;;;5090704;28;20166;-75
2022/07/17 08:43:30;;;;;;;4.17;2.47;;;27.80;1.00;;;;;;5109457;28;20192;-76
2022/07/17 08:45:56;;;;;;;4.27;2.50;;;28.10;1.00;;;;;;5109250;28;20182;-76
2022/07/17 08:48:25;;;;;;;4.80;2.10;;;28.40;1.00;;;;;;5091791;28;20210;-75
2022/07/17 08:50:51;;;;;;;7.13;2.30;;;28.60;1.00;;;;;;5108826;28;20207;-75
2022/07/17 08:53:16;;;;;;;5.37;4.63;;;28.90;1.00;;;;;;5108605;28;20356;-76
2022/07/17 08:55:42;;;;;;;4.13;2.10;;;29.30;1.00;;;;;;5091159;28;20171;-75
2022/07/17 08:58:08;;;;;;;7.33;2.40;;;29.30;1.00;;;;;;5109540;28;20255;-76
2022/07/17 09:00:33;;;;;;;7.80;2.27;;;29.20;1.00;;;;;;5110103;28;20182;-76
2022/07/17 09:03:05;;;;;;;4.87;2.33;;;29.30;1.00;;;;;;5107232;28;20170;-75
2022/07/17 09:05:36;;;;;;;4.45;2.28;;;29.90;1.00;;;;;;5111100;28;20174;-76
2022/07/17 09:08:04;;;;;;;6.40;2.47;;;30.90;1.00;;;;;;5110303;28;20190;-77
2022/07/17 09:10:34;;;;;;;7.47;5.38;;;31.60;1.00;;;;;;5110905;28;20210;-77
2022/07/17 09:13:00;;;;;;;6.28;5.68;;;32.40;1.00;;;;;;5091754;28;20178;-76
2022/07/17 09:15:27;;;;;;;17.35;15.63;;;33.50;1.00;;;;;;5111226;28;20171;-77
2022/07/17 09:17:55;;;;;;;3.67;2.60;;;34.30;1.00;;;;;;5101928;28;20387;-76
2022/07/17 09:20:22;;;;;;;3.25;2.30;;;35.30;1.00;;;;;;5120145;27;20207;-77
2022/07/17 09:23:03;;;;;;;15.93;14.50;;;35.80;1.00;;;;;;5110026;28;20203;-77
2022/07/17 09:25:43;;;;;;;3.13;2.08;;;36.60;1.00;;;;;;5110518;28;20670;-77
2022/07/17 09:28:12;;;;;;;2.83;1.90;;;36.20;1.00;;;;;;5109601;28;20194;-78
2022/07/17 09:30:40;;;;;;;2.58;1.90;;;36.70;1.00;;;;;;5110753;28;20266;-77
2022/07/17 09:33:17;;;;;;;4.45;1.90;;;36.70;1.00;;;;;;5090824;28;20202;-76
2022/07/17 09:35:54;;;;;;;3.40;2.00;;;37.40;1.00;;;;;;5092211;28;20239;-77
2022/07/17 09:38:31;;;;;;;4.53;2.20;;;37.30;1.00;;;;;;5090395;28;20286;-78
2022/07/17 09:41:11;;;;;;;6.13;2.28;;;37.20;1.00;;;;;;5084095;28;20174;-77
2022/07/17 09:43:44;;;;;;;3.80;2.10;;;37.90;1.00;;;;;;5106443;28;20258;-77
2022/07/17 09:46:13;;;;;;;3.08;2.00;;;38.70;1.00;;;;;;5099170;28;20272;-77
2022/07/17 09:48:49;;;;;;;4.20;2.13;;;39.20;1.00;;;;;;5108103;28;20219;-76
2022/07/17 09:51:18;;;;;;;5.50;2.20;;;39.10;1.00;;;;;;5107574;28;20600;-77
2022/07/17 09:53:47;;;;;;;5.10;2.42;;;39.00;1.00;;;;;;5105283;28;20714;-77
2022/07/17 09:56:17;;;;;;;4.90;2.00;;;38.90;1.00;;;;;;5102745;28;20235;-77
2022/07/17 09:58:46;;;;;;;4.95;2.00;;;38.60;1.00;;;;;;5109377;28;20205;-77
2022/07/17 10:01:15;;;;;;;3.22;1.98;;;38.40;1.00;;;;;;5089994;28;20717;-76
2022/07/17 10:03:41;;;;;;;5.00;2.90;;;38.60;1.00;;;;;;5109309;28;20167;-76
2022/07/17 10:06:08;;;;;;;3.70;2.00;;;38.50;1.00;;;;;;5092112;28;20590;-77
2022/07/17 10:08:35;;;;;;;4.78;2.00;;;39.00;1.00;;;;;;5112941;28;20360;-77
2022/07/17 10:11:00;;;;;;;2.90;2.00;;;39.00;1.00;;;;;;5090965;28;20532;-77
2022/07/17 10:13:26;;;;;;;4.63;2.30;;;38.40;1.00;;;;;;5110487;28;20218;-77
2022/07/17 10:15:52;;;;;;;3.80;1.80;;;38.70;1.00;;;;;;5109086;28;20170;-79
2022/07/17 10:18:21;;;;;;;5.15;3.42;;;39.30;1.00;;;;;;5116565;27;20194;-77
2022/07/17 10:20:46;;;;;;;7.57;2.05;;;39.70;1.00;;;;;;5109362;28;20183;-77
2022/07/17 10:23:16;;;;;;;4.18;1.85;;;40.40;1.00;;;;;;5105904;28;20482;-78
2022/07/17 10:25:42;;;;;;;4.55;2.78;;;41.20;1.00;;;;;;5106253;28;20207;-76
2022/07/17 10:28:08;;;;;;;4.25;2.00;;;42.10;1.00;;;;;;5088036;28;20227;-77
2022/07/17 10:30:34;;;;;;;4.82;1.80;;;42.10;1.00;;;;;;5106575;28;20175;-78
2022/07/17 10:33:04;;;;;;;2.63;1.77;;;42.30;1.00;;;;;;5087323;28;20178;-78
2022/07/17 10:35:44;;;;;;;3.88;2.00;;;42.50;1.00;;;;;;5088493;28;20167;-78
2022/07/17 10:38:14;;;;;;;3.65;2.00;;;42.80;1.00;;;;;;5081174;28;20548;-78
2022/07/17 10:40:41;;;;;;;3.13;2.00;;;43.20;1.00;;;;;;5088619;28;20170;-78
2022/07/17 10:43:07;;;;;;;2.97;1.85;;;43.40;1.00;;;;;;5105531;28;20213;-78
2022/07/17 10:45:38;;;;;;;3.25;2.00;;;43.30;1.00;;;;;;5107334;28;20501;-78
2022/07/17 10:48:08;;;;;;;5.72;1.88;;;43.60;1.00;;;;;;5104569;28;20191;-79
2022/07/17 10:50:46;;;;;;;2.75;1.80;;;43.50;1.00;;;;;;5087501;28;20282;-79
2022/07/17 10:53:20;;;;;;;3.50;1.98;;;43.60;1.00;;;;;;5100769;28;20207;-79
2022/07/17 10:55:48;;;;;;;2.42;1.52;;;43.60;1.00;;;;;;5087853;28;20263;-78
2022/07/17 10:58:25;;;;;;;4.80;1.80;;;43.70;1.00;;;;;;5105723;28;20178;-78
2022/07/17 11:01:15;;;;;;;3.13;1.67;;;43.30;1.00;;;;;;5087797;28;20182;-78
2022/07/17 11:03:48;;;;;;;3.13;1.63;;;42.50;1.00;;;;;;5104188;28;20178;-78
2022/07/17 11:06:17;;;;;;;9.45;1.88;;;42.60;1.00;;;;;;5104441;28;20227;-78
2022/07/17 11:08:44;;;;;;;5.28;2.00;;;42.00;1.00;;;;;;5104960;28;20252;-79
2022/07/17 11:11:10;;;;;;;2.97;1.90;;;42.20;1.00;;;;;;5102513;28;20277;-77
2022/07/17 11:13:36;;;;;;;3.63;1.90;;;42.70;1.00;;;;;;5085198;28;20285;-77
2022/07/17 11:16:02;;;;;;;2.97;2.13;;;43.40;1.00;;;;;;5087474;28;20170;-78
2022/07/17 11:18:28;;;;;;;3.63;2.30;;;44.00;1.00;;;;;;5085759;28;20187;-78
2022/07/17 11:20:59;;;;;;;3.88;1.77;;;44.30;1.00;;;;;;5104626;28;20295;-78
2022/07/17 11:23:27;;;;;;;5.57;2.30;;;44.90;1.00;;;;;;5099703;28;20248;-78
2022/07/17 11:25:58;;;;;;;3.72;2.10;;;45.40;1.00;;;;;;5104781;28;20282;-78
2022/07/17 11:28:35;;;;;;;5.28;2.08;;;44.60;1.00;;;;;;5087640;28;20190;-78
2022/07/17 11:31:02;;;;;;;2.67;1.60;;;43.90;1.00;;;;;;5083647;28;20530;-79
2022/07/17 11:33:28;;;;;;;6.97;2.08;;;43.30;1.00;;;;;;5103826;28;20190;-78
2022/07/17 11:35:56;;;;;;;5.57;1.90;;;43.40;1.00;;;;;;5110050;28;20178;-79
2022/07/17 11:38:27;;;;;;;3.85;1.75;;;43.70;1.00;;;;;;5090015;28;20194;-79
2022/07/17 11:40:52;;;;;;;2.92;1.88;;;44.30;1.00;;;;;;5109158;28;20694;-78
2022/07/17 11:43:18;;;;;;;2.40;1.60;;;44.30;1.00;;;;;;5108882;28;20195;-77
2022/07/17 11:45:44;;;;;;;4.47;1.73;;;44.80;1.00;;;;;;5107646;28;20269;-78
2022/07/17 11:48:10;;;;;;;2.90;1.90;;;44.70;1.00;;;;;;5109602;28;20289;-78
2022/07/17 11:50:36;;;;;;;8.32;1.80;;;45.10;1.00;;;;;;5108718;28;20242;-79
2022/07/17 11:53:05;;;;;;;3.20;2.00;;;45.30;1.00;;;;;;5103490;28;20670;-78
2022/07/17 11:55:38;;;;;;;6.03;1.70;;;45.60;1.00;;;;;;5090376;28;20186;-78
2022/07/17 11:58:03;;;;;;;5.30;1.92;;;45.50;1.00;;;;;;5089556;28;20218;-79
2022/07/17 12:00:29;;;;;;;4.57;1.90;;;45.50;1.00;;;;;;5110367;28;20710;-78
2022/07/17 12:03:04;;;;;;;3.40;1.88;;;45.80;1.00;;;;;;5106580;28;20198;-78
2022/07/17 12:05:34;;;;;;;2.70;1.60;;;46.10;1.00;;;;;;5107315;28;20222;-78
2022/07/17 12:08:00;;;;;;;3.67;1.80;;;46.00;1.00;;;;;;5100304;28;20503;-78
2022/07/17 12:10:28;;;;;;;5.88;2.05;;;45.70;1.00;;;;;;5101199;28;20174;-79
2022/07/17 12:13:01;;;;;;;8.15;2.00;;;45.60;1.00;;;;;;5094645;28;20524;-80
2022/07/17 12:15:44;;;;;;;4.60;2.00;;;45.70;1.00;;;;;;5092340;28;20519;-80
2022/07/17 12:18:25;;;;;;;3.08;1.90;;;45.90;1.00;;;;;;5103110;28;20262;-78
2022/07/17 12:20:53;;;;;;;2.55;1.70;;;45.90;1.00;;;;;;5107600;28;20368;-79
2022/07/17 12:23:38;;;;;;;4.47;2.08;;;46.10;1.00;;;;;;5109051;28;20202;-79
2022/07/17 12:26:16;;;;;;;2.42;1.77;;;46.20;1.00;;;;;;5090703;28;20688;-79
2022/07/17 12:28:43;;;;;;;3.15;1.95;;;46.50;1.00;;;;;;5109129;28;20625;-79
2022/07/17 12:31:09;;;;;;;3.63;2.17;;;47.00;1.00;;;;;;5108504;28;20167;-78
2022/07/17 12:33:35;;;;;;;4.70;1.92;;;47.30;1.00;;;;;;5109246;28;20214;-79
2022/07/17 12:36:01;;;;;;;3.85;1.77;;;47.20;1.00;;;;;;5110122;28;20618;-79
2022/07/17 12:38:26;;;;;;;3.33;1.90;;;47.00;1.00;;;;;;5089105;28;20201;-78
2022/07/17 12:40:52;;;;;;;2.95;1.70;;;47.20;1.00;;;;;;5103265;28;20178;-79
2022/07/17 12:43:17;;;;;;;4.22;1.80;;;47.20;1.00;;;;;;5107752;28;20576;-79
2022/07/17 12:45:43;;;;;;;4.63;2.05;;;46.80;1.00;;;;;;5103889;27;20190;-78
2022/07/17 12:48:08;;;;;;;4.93;2.00;;;47.00;1.00;;;;;;5107527;28;20274;-79
2022/07/17 12:50:34;;;;;;;7.88;1.70;;;47.20;1.00;;;;;;5107474;28;20266;-80
2022/07/17 12:53:00;;;;;;;4.20;2.00;;;47.00;1.00;;;;;;5106844;28;20201;-78
2022/07/17 12:55:25;;;;;;;2.90;1.90;;;47.20;1.00;;;;;;5080632;28;20179;-79
2022/07/17 12:57:51;;;;;;;4.72;2.05;;;46.40;1.00;;;;;;5105055;28;20194;-79